Time;durP1;ratioP1;P1;durP2;ratioP2;P2;SDS_P1;SDS_P2;PMS_P1;PMS_P2;Temp;Humidity;BMP_temperature;BMP_pressure;BME280_temperature;BME280_humidity;BME280_pressure;Samples;Min_cycle;Max_cycle;Signal;HPM_P1;HPM_P2
2023/09/25 00:00:33;;;;;;;16.27;3.13;;;;;;;15.72;100.00;99264.72;5068377;28;20037;-69
2023/09/25 00:03:02;;;;;;;15.30;3.17;;;;;;;15.77;100.00;99277.56;5069705;28;20445;-69
2023/09/25 00:05:30;;;;;;;15.82;2.47;;;;;;;15.75;100.00;99277.66;5053639;28;20056;-69
2023/09/25 00:07:57;;;;;;;10.40;2.78;;;;;;;15.80;100.00;99268.56;5083854;28;20064;-68
2023/09/25 00:10:24;;;;;;;16.85;2.75;;;;;;;15.70;100.00;99279.00;5069292;28;20036;-69
2023/09/25 00:12:51;;;;;;;12.48;2.47;;;;;;;15.70;100.00;99298.28;5069757;28;20474;-69
2023/09/25 00:15:18;;;;;;;10.00;1.83;;;;;;;15.54;100.00;99306.63;5071822;28;20409;-69
2023/09/25 00:17:45;;;;;;;6.78;1.58;;;;;;;15.66;100.00;99317.97;5068629;28;20410;-69
2023/09/25 00:20:12;;;;;;;6.53;1.30;;;;;;;15.54;100.00;99301.34;5069821;28;20052;-68
2023/09/25 00:22:40;;;;;;;3.40;1.10;;;;;;;15.53;100.00;99299.69;5070071;28;20044;-69
2023/09/25 00:25:08;;;;;;;4.03;1.17;;;;;;;15.45;100.00;99317.91;5068300;28;20071;-69
2023/09/25 00:27:34;;;;;;;4.10;1.10;;;;;;;15.33;100.00;99313.63;5066790;28;20057;-69
2023/09/25 00:30:06;;;;;;;6.88;1.00;;;;;;;15.27;100.00;99298.31;5065141;28;20059;-69
2023/09/25 00:32:33;;;;;;;3.00;0.90;;;;;;;15.25;100.00;99306.34;5061213;28;20048;-69
2023/09/25 00:35:01;;;;;;;3.63;1.00;;;;;;;15.13;100.00;99302.03;5068889;28;20056;-68
2023/09/25 00:37:29;;;;;;;3.42;1.00;;;;;;;14.97;100.00;99289.22;5067891;28;20056;-68
2023/09/25 00:39:56;;;;;;;2.95;1.00;;;;;;;15.13;100.00;99296.75;5068010;28;20055;-68
2023/09/25 00:42:24;;;;;;;5.60;1.10;;;;;;;15.02;100.00;99309.97;5084765;28;20052;-68
2023/09/25 00:44:51;;;;;;;4.80;1.35;;;;;;;14.85;100.00;99308.66;5071486;28;20391;-69
2023/09/25 00:47:17;;;;;;;7.07;1.25;;;;;;;14.93;100.00;99335.25;5079061;28;20102;-69
2023/09/25 00:49:45;;;;;;;5.70;1.30;;;;;;;14.88;100.00;99338.22;5069395;28;20063;-68
2023/09/25 00:52:12;;;;;;;5.80;1.40;;;;;;;14.84;100.00;99355.25;5054243;28;20060;-69
2023/09/25 00:54:39;;;;;;;5.03;1.40;;;;;;;14.86;100.00;99358.59;5066454;28;20503;-68
2023/09/25 00:57:09;;;;;;;6.25;1.20;;;;;;;14.73;100.00;99365.75;5067732;28;20052;-69
2023/09/25 00:59:39;;;;;;;6.10;1.60;;;;;;;14.75;100.00;99384.91;5069325;28;20478;-69
2023/09/25 01:02:06;;;;;;;3.88;1.40;;;;;;;14.69;100.00;99373.06;5064630;28;20139;-68
2023/09/25 01:04:33;;;;;;;5.60;1.73;;;;;;;14.68;100.00;99381.94;5087575;28;20477;-69
2023/09/25 01:07:00;;;;;;;8.65;1.80;;;;;;;14.64;100.00;99395.44;5069390;28;20053;-69
2023/09/25 01:09:27;;;;;;;6.72;1.77;;;;;;;14.70;100.00;99421.34;5073151;28;20044;-68
2023/09/25 01:11:54;;;;;;;6.50;1.92;;;;;;;14.54;100.00;99427.72;5077498;28;20135;-68
2023/09/25 01:14:21;;;;;;;5.03;1.42;;;;;;;14.68;100.00;99424.06;5076480;28;20044;-69
2023/09/25 01:16:48;;;;;;;6.82;1.42;;;;;;;14.76;100.00;99434.03;5072108;28;20107;-69
2023/09/25 01:19:15;;;;;;;10.32;1.90;;;;;;;14.67;100.00;99445.25;5056752;28;20518;-68
2023/09/25 01:21:48;;;;;;;11.18;2.13;;;;;;;14.61;100.00;99459.75;5072029;28;20410;-68
2023/09/25 01:24:14;;;;;;;7.00;2.05;;;;;;;14.53;100.00;99459.44;5071863;28;20410;-69
2023/09/25 01:26:41;;;;;;;7.80;1.95;;;;;;;14.64;100.00;99450.75;5066629;28;20041;-69
2023/09/25 01:29:08;;;;;;;9.90;1.88;;;;;;;14.66;100.00;99456.75;5068186;28;20063;-69
2023/09/25 01:31:35;;;;;;;7.55;1.77;;;;;;;14.71;100.00;99463.34;5068647;28;20051;-69
2023/09/25 01:34:02;;;;;;;7.07;1.90;;;;;;;14.74;100.00;99465.75;5069485;28;20049;-68
2023/09/25 01:36:29;;;;;;;7.85;2.47;;;;;;;14.70;100.00;99464.31;5068138;28;20501;-69
2023/09/25 01:38:56;;;;;;;8.27;2.28;;;;;;;14.72;100.00;99465.03;5070545;28;20049;-68
2023/09/25 01:41:22;;;;;;;8.93;2.35;;;;;;;14.49;100.00;99450.09;5074898;28;20044;-69
2023/09/25 01:43:51;;;;;;;6.93;1.83;;;;;;;14.71;100.00;99455.44;5072745;28;20040;-69
2023/09/25 01:46:17;;;;;;;6.45;2.05;;;;;;;14.53;100.00;99441.81;5063393;28;20075;-69
2023/09/25 01:48:44;;;;;;;8.57;2.00;;;;;;;14.39;100.00;99431.47;5074108;28;20045;-68
2023/09/25 01:51:11;;;;;;;8.63;2.40;;;;;;;14.42;100.00;99437.34;5073054;28;20048;-69
2023/09/25 01:53:38;;;;;;;7.70;2.10;;;;;;;14.44;100.00;99431.97;5068399;28;20048;-68
2023/09/25 01:56:14;;;;;;;9.98;2.58;;;;;;;14.42;100.00;99428.63;5071695;28;20079;-68
2023/09/25 01:58:42;;;;;;;8.40;2.33;;;;;;;14.37;100.00;99410.53;5070548;28;20102;-68
2023/09/25 02:01:09;;;;;;;9.45;2.28;;;;;;;14.15;100.00;99399.94;5074797;28;20055;-68
2023/09/25 02:03:36;;;;;;;10.55;2.70;;;;;;;14.39;100.00;99413.88;5077192;28;20055;-68
2023/09/25 02:06:04;;;;;;;8.38;2.20;;;;;;;14.28;100.00;99395.41;5076876;28;20052;-69
2023/09/25 02:08:31;;;;;;;11.63;2.22;;;;;;;14.45;100.00;99407.34;5073611;28;20056;-68
2023/09/25 02:10:58;;;;;;;10.15;2.50;;;;;;;14.44;100.00;99411.75;5070918;28;20048;-69
2023/09/25 02:13:25;;;;;;;9.07;2.20;;;;;;;14.31;100.00;99407.53;5072051;28;20489;-69
2023/09/25 02:15:52;;;;;;;11.00;2.72;;;;;;;14.36;100.00;99415.91;5071676;28;20053;-68
2023/09/25 02:18:18;;;;;;;6.65;2.13;;;;;;;14.50;100.00;99414.88;5076369;28;20491;-68
2023/09/25 02:20:46;;;;;;;11.77;2.40;;;;;;;14.50;100.00;99414.88;5079180;28;20128;-68
2023/09/25 02:23:12;;;;;;;8.15;2.10;;;;;;;14.37;100.00;99415.78;5075272;28;20464;-68
2023/09/25 02:25:39;;;;;;;9.68;2.13;;;;;;;14.35;100.00;99430.03;5074929;28;20045;-69
2023/09/25 02:28:06;;;;;;;11.27;2.80;;;;;;;14.30;100.00;99427.72;5067252;28;20052;-68
2023/09/25 02:30:33;;;;;;;9.15;2.85;;;;;;;14.17;100.00;99437.50;5063518;28;20067;-69
2023/09/25 02:33:00;;;;;;;8.95;2.70;;;;;;;14.35;100.00;99457.19;5066000;28;20057;-68
2023/09/25 02:35:27;;;;;;;9.82;2.95;;;;;;;14.33;100.00;99442.47;5070531;28;20063;-68
2023/09/25 02:37:54;;;;;;;11.57;2.67;;;;;;;14.45;100.00;99449.47;5074106;28;20056;-68
2023/09/25 02:40:20;;;;;;;10.20;2.80;;;;;;;14.51;100.00;99454.28;5065213;28;20139;-68
2023/09/25 02:42:47;;;;;;;8.02;2.53;;;;;;;14.52;100.00;99457.75;5070916;28;20508;-69
2023/09/25 02:45:14;;;;;;;13.45;3.00;;;;;;;14.65;100.00;99469.09;5069914;28;20132;-68
2023/09/25 02:47:43;;;;;;;10.00;3.10;;;;;;;14.60;100.00;99468.59;5071255;28;20052;-69
2023/09/25 02:50:10;;;;;;;7.70;2.03;;;;;;;14.68;100.00;99473.28;5073393;28;20063;-69
2023/09/25 02:52:37;;;;;;;7.85;2.40;;;;;;;14.66;100.00;99469.91;5071369;28;20044;-69
2023/09/25 02:55:04;;;;;;;11.35;2.58;;;;;;;14.75;100.00;99475.34;5070878;28;20052;-68
2023/09/25 02:57:31;;;;;;;9.57;2.65;;;;;;;14.69;100.00;99491.59;5069800;28;20044;-68
2023/09/25 02:59:57;;;;;;;8.75;2.50;;;;;;;14.54;100.00;99484.81;5070558;28;20060;-69
2023/09/25 03:02:25;;;;;;;10.07;2.83;;;;;;;14.64;100.00;99493.72;5065057;28;20041;-68
2023/09/25 03:04:53;;;;;;;10.05;2.95;;;;;;;14.55;100.00;99489.13;5065072;28;20055;-68
2023/09/25 03:07:21;;;;;;;9.65;3.17;;;;;;;14.71;100.00;99494.13;5070314;28;20053;-69
2023/09/25 03:09:48;;;;;;;11.68;2.95;;;;;;;14.62;100.00;99477.22;5066973;28;20493;-68
2023/09/25 03:12:14;;;;;;;13.02;2.97;;;;;;;14.72;100.00;99494.00;5067874;28;20411;-68
2023/09/25 03:14:42;;;;;;;11.63;2.95;;;;;;;14.54;100.00;99477.75;5071861;28;20118;-68
2023/09/25 03:17:09;;;;;;;10.15;2.80;;;;;;;14.53;100.00;99469.97;5069857;28;20441;-69
2023/09/25 03:19:36;;;;;;;11.90;3.00;;;;;;;14.52;100.00;99481.44;5078047;28;20127;-68
2023/09/25 03:22:02;;;;;;;16.33;3.60;;;;;;;14.41;100.00;99484.88;5056265;28;20613;-68
2023/09/25 03:24:30;;;;;;;15.05;3.10;;;;;;;14.53;100.00;99491.03;5069857;28;20064;-68
2023/09/25 03:26:57;;;;;;;15.40;3.20;;;;;;;14.36;100.00;99506.28;5069094;28;20056;-68
2023/09/25 03:29:23;;;;;;;8.85;2.80;;;;;;;14.32;100.00;99515.34;5073358;28;20048;-68
2023/09/25 03:31:50;;;;;;;13.63;3.10;;;;;;;14.31;100.00;99511.03;5069234;28;20049;-68
2023/09/25 03:34:17;;;;;;;13.23;3.65;;;;;;;14.42;100.00;99512.91;5065160;28;20061;-68
2023/09/25 03:36:43;;;;;;;10.77;2.63;;;;;;;14.34;100.00;99529.25;5078009;28;20405;-69
2023/09/25 03:39:10;;;;;;;12.05;3.25;;;;;;;14.26;100.00;99512.34;5060312;28;20080;-68
2023/09/25 03:41:37;;;;;;;11.40;3.05;;;;;;;14.21;100.00;99508.22;5069947;28;20036;-68
2023/09/25 03:44:04;;;;;;;11.00;2.65;;;;;;;14.37;100.00;99528.19;5069825;28;20049;-69
2023/09/25 03:46:31;;;;;;;12.85;3.20;;;;;;;14.32;100.00;99531.13;5055769;28;20056;-69
2023/09/25 03:49:01;;;;;;;14.05;3.22;;;;;;;14.31;100.00;99518.13;5057702;28;20052;-69
2023/09/25 03:51:28;;;;;;;14.55;3.38;;;;;;;14.29;100.00;99541.91;5059522;28;20098;-68
2023/09/25 03:53:55;;;;;;;16.10;3.08;;;;;;;14.44;100.00;99532.06;5059482;28;20082;-68
2023/09/25 03:56:21;;;;;;;13.73;2.92;;;;;;;14.39;100.00;99537.63;5064291;28;20052;-68
2023/09/25 03:58:48;;;;;;;10.05;2.83;;;;;;;14.42;100.00;99547.13;5070970;28;20049;-69
2023/09/25 04:01:15;;;;;;;15.13;4.15;;;;;;;14.24;100.00;99547.50;5065584;28;20052;-68
2023/09/25 04:03:42;;;;;;;12.15;3.40;;;;;;;14.22;100.00;99544.16;5091022;28;20130;-68
2023/09/25 04:06:09;;;;;;;16.52;4.00;;;;;;;14.32;100.00;99546.09;5066409;28;20051;-69
2023/09/25 04:08:36;;;;;;;14.50;3.70;;;;;;;14.42;100.00;99552.41;5069804;28;20479;-68
2023/09/25 04:11:03;;;;;;;14.98;3.35;;;;;;;14.23;100.00;99561.59;5069764;28;20059;-68
2023/09/25 04:13:31;;;;;;;13.50;3.15;;;;;;;14.36;100.00;99566.84;5077561;28;20569;-68
2023/09/25 04:15:58;;;;;;;15.05;3.58;;;;;;;14.18;100.00;99583.94;5083310;28;20044;-68
2023/09/25 04:18:25;;;;;;;15.43;3.35;;;;;;;14.18;100.00;99589.22;5067364;28;20054;-68
2023/09/25 04:20:52;;;;;;;18.70;3.55;;;;;;;14.28;100.00;99592.03;5072519;28;20047;-68
2023/09/25 04:23:19;;;;;;;17.58;3.20;;;;;;;14.43;100.00;99609.41;5073841;28;20048;-68
2023/09/25 04:25:52;;;;;;;17.08;3.72;;;;;;;14.36;100.00;99613.38;5069026;28;20052;-68
2023/09/25 04:28:20;;;;;;;11.40;3.53;;;;;;;14.56;100.00;99620.72;5068317;28;20053;-68
2023/09/25 04:30:46;;;;;;;15.60;3.58;;;;;;;14.40;100.00;99620.97;5069311;28;20063;-68
2023/09/25 04:33:14;;;;;;;9.95;2.63;;;;;;;14.43;100.00;99628.66;5067759;28;20144;-66
2023/09/25 04:35:42;;;;;;;10.68;2.63;;;;;;;14.54;100.00;99638.44;5062969;28;20501;-66
2023/09/25 04:38:09;;;;;;;14.43;3.05;;;;;;;14.55;100.00;99645.34;5068189;28;20398;-66
2023/09/25 04:40:35;;;;;;;14.05;3.47;;;;;;;14.60;100.00;99645.06;5066904;28;20052;-66
2023/09/25 04:43:03;;;;;;;12.75;2.88;;;;;;;14.63;100.00;99647.50;5080953;28;20044;-66
2023/09/25 04:45:29;;;;;;;12.05;2.40;;;;;;;14.64;100.00;99645.69;5070749;28;20048;-66
2023/09/25 04:47:57;;;;;;;10.70;3.38;;;;;;;14.63;100.00;99628.22;5068305;28;20056;-66
2023/09/25 04:50:24;;;;;;;9.93;2.50;;;;;;;14.59;100.00;99633.69;5068179;28;20127;-66
2023/09/25 04:52:51;;;;;;;10.10;2.75;;;;;;;14.65;100.00;99629.78;5060183;28;20052;-66
2023/09/25 04:55:17;;;;;;;10.25;2.92;;;;;;;14.55;100.00;99648.00;5061239;28;20068;-66
2023/09/25 04:57:46;;;;;;;11.88;2.85;;;;;;;14.42;100.00;99658.56;5064122;28;20051;-66
2023/09/25 05:02:47;;;;;;;13.93;3.25;;;;;;;14.57;100.00;99667.19;5065767;28;20570;-66
2023/09/25 05:05:16;;;;;;;13.27;3.58;;;;;;;14.51;100.00;99667.59;5076227;28;20044;-66
2023/09/25 05:07:44;;;;;;;12.40;2.97;;;;;;;14.64;100.00;99666.75;5065449;28;20048;-66
2023/09/25 05:10:12;;;;;;;12.95;3.20;;;;;;;14.62;100.00;99658.97;5065732;28;20045;-66
2023/09/25 05:12:39;;;;;;;11.70;2.60;;;;;;;14.66;100.00;99671.00;5062374;28;20044;-66
2023/09/25 05:15:07;;;;;;;12.82;3.17;;;;;;;14.58;100.00;99684.69;5063958;28;20067;-65
2023/09/25 05:17:36;;;;;;;16.30;3.35;;;;;;;14.59;100.00;99678.47;5066220;28;20045;-66
2023/09/25 05:20:11;;;;;;;17.13;4.45;;;;;;;14.63;100.00;99679.09;5077491;28;20082;-66
2023/09/25 05:22:39;;;;;;;14.77;3.58;;;;;;;14.55;100.00;99676.13;5070865;28;21042;-66
2023/09/25 05:25:08;;;;;;;15.43;3.55;;;;;;;14.48;100.00;99685.41;5072890;28;20086;-66
2023/09/25 05:27:39;;;;;;;14.98;3.50;;;;;;;14.30;100.00;99680.50;5070007;28;20048;-66
2023/09/25 05:30:10;;;;;;;15.25;3.10;;;;;;;14.41;100.00;99687.63;5065394;28;20084;-66
2023/09/25 05:32:38;;;;;;;26.17;4.03;;;;;;;14.27;100.00;99693.91;5067353;28;20063;-66
2023/09/25 05:35:05;;;;;;;18.40;4.05;;;;;;;14.17;100.00;99682.31;5065242;28;20055;-66
2023/09/25 05:37:35;;;;;;;20.50;4.88;;;;;;;14.19;100.00;99697.03;5074738;28;20477;-66
2023/09/25 05:40:05;;;;;;;15.80;4.13;;;;;;;14.30;100.00;99698.91;5069621;28;20466;-66
2023/09/25 05:42:31;;;;;;;22.13;4.15;;;;;;;14.31;100.00;99690.09;5068811;28;20055;-65
2023/09/25 05:44:58;;;;;;;12.27;2.90;;;;;;;14.43;100.00;99680.50;5065456;28;20049;-66
2023/09/25 05:47:25;;;;;;;15.65;3.85;;;;;;;14.32;100.00;99681.22;5065181;28;20094;-67
2023/09/25 05:49:52;;;;;;;19.08;3.53;;;;;;;14.24;100.00;99684.41;5067064;28;20084;-67
2023/09/25 05:52:18;;;;;;;17.85;3.83;;;;;;;14.22;100.00;99675.78;5067251;28;20135;-65
2023/09/25 05:54:45;;;;;;;13.45;3.75;;;;;;;14.24;100.00;99688.84;5067295;28;20448;-65
2023/09/25 05:57:12;;;;;;;22.80;4.25;;;;;;;14.12;100.00;99677.34;5065202;28;20135;-65
2023/09/25 05:59:39;;;;;;;16.08;3.85;;;;;;;13.96;100.00;99672.31;5068891;28;20481;-65
2023/09/25 06:02:07;;;;;;;16.45;3.13;;;;;;;13.99;100.00;99673.91;5070888;28;20499;-65
2023/09/25 06:04:36;;;;;;;16.90;3.97;;;;;;;14.05;100.00;99699.78;5065971;28;20114;-65
2023/09/25 06:07:03;;;;;;;12.68;3.70;;;;;;;13.91;100.00;99705.16;5066987;28;20527;-65
2023/09/25 06:09:31;;;;;;;15.10;3.70;;;;;;;13.93;100.00;99711.16;5065714;28;20135;-65
2023/09/25 06:11:58;;;;;;;18.23;4.32;;;;;;;13.94;100.00;99715.47;5060604;28;20037;-66
2023/09/25 06:14:28;;;;;;;19.33;3.97;;;;;;;13.98;100.00;99719.56;5071944;28;20497;-66
2023/09/25 06:16:56;;;;;;;20.20;3.83;;;;;;;13.92;100.00;99720.84;5073822;28;20048;-65
2023/09/25 06:19:24;;;;;;;17.75;4.78;;;;;;;13.96;100.00;99721.47;5066359;28;20110;-65
2023/09/25 06:21:52;;;;;;;22.10;4.80;;;;;;;14.00;100.00;99715.88;5063807;28;20052;-65
2023/09/25 06:24:21;;;;;;;16.02;4.20;;;;;;;14.07;100.00;99720.75;5054546;28;20048;-66
2023/09/25 06:26:49;;;;;;;14.88;4.05;;;;;;;14.03;100.00;99707.78;5068431;28;20076;-65
2023/09/25 06:29:17;;;;;;;13.43;3.90;;;;;;;14.17;100.00;99727.91;5059979;28;20055;-65
2023/09/25 06:31:43;;;;;;;22.92;4.40;;;;;;;14.24;100.00;99731.78;5059590;28;20048;-66
2023/09/25 06:34:26;;;;;;;15.75;4.07;;;;;;;14.26;100.00;99707.16;5059885;28;20049;-66
2023/09/25 06:36:54;;;;;;;16.52;4.07;;;;;;;14.33;100.00;99697.88;5066493;28;20044;-66
2023/09/25 06:39:21;;;;;;;21.48;4.88;;;;;;;14.24;100.00;99715.16;5075237;28;20148;-66
2023/09/25 06:41:48;;;;;;;17.77;4.07;;;;;;;14.14;100.00;99693.88;5052599;28;20557;-67
2023/09/25 06:44:15;;;;;;;19.55;3.80;;;;;;;14.22;100.00;99699.47;5059427;28;20056;-66
2023/09/25 06:46:43;;;;;;;20.52;3.85;;;;;;;14.23;100.00;99716.94;5054644;28;20060;-66
2023/09/25 06:49:10;;;;;;;18.40;4.60;;;;;;;14.24;100.00;99725.69;5070855;28;20061;-66
2023/09/25 06:51:37;;;;;;;14.93;3.35;;;;;;;14.34;100.00;99726.75;5084974;28;20048;-66
2023/09/25 06:54:04;;;;;;;15.02;3.85;;;;;;;14.37;100.00;99723.88;5068316;28;20509;-66
2023/09/25 06:56:31;;;;;;;19.58;4.20;;;;;;;14.35;100.00;99723.16;5059890;28;20478;-66
2023/09/25 06:58:57;;;;;;;16.90;4.53;;;;;;;14.47;100.00;99718.81;5068450;28;20044;-66
2023/09/25 07:01:24;;;;;;;15.30;4.03;;;;;;;14.71;100.00;99716.25;5069197;28;20129;-66
2023/09/25 07:03:51;;;;;;;16.88;3.63;;;;;;;15.26;100.00;99703.53;5057211;28;20630;-66
2023/09/25 07:06:19;;;;;;;19.20;3.72;;;;;;;15.48;100.00;99723.06;5082412;28;20147;-66
2023/09/25 07:08:46;;;;;;;19.17;3.78;;;;;;;15.63;100.00;99699.97;5062532;28;20100;-66
2023/09/25 07:11:17;;;;;;;17.48;4.05;;;;;;;16.00;100.00;99734.16;5067193;28;20510;-66
2023/09/25 07:13:44;;;;;;;19.85;3.85;;;;;;;16.21;100.00;99739.59;5074513;28;20411;-66
2023/09/25 07:16:10;;;;;;;16.52;3.70;;;;;;;16.34;100.00;99756.16;5064771;28;20048;-66
2023/09/25 07:18:38;;;;;;;13.27;3.55;;;;;;;16.44;100.00;99772.16;5068688;28;20056;-66
2023/09/25 07:21:06;;;;;;;18.13;3.67;;;;;;;16.66;100.00;99788.03;5067163;28;20126;-66
2023/09/25 07:23:33;;;;;;;11.65;3.08;;;;;;;16.67;100.00;99799.44;5058277;28;20127;-66
2023/09/25 07:26:04;;;;;;;10.55;3.15;;;;;;;16.78;100.00;99810.00;5071794;28;20045;-65
2023/09/25 07:28:31;;;;;;;16.13;3.13;;;;;;;17.14;100.00;99829.25;5059576;28;20055;-66
2023/09/25 07:31:00;;;;;;;13.77;3.30;;;;;;;17.33;100.00;99833.06;5067242;28;20115;-66
2023/09/25 07:33:31;;;;;;;13.10;3.13;;;;;;;17.45;100.00;99818.84;5065718;28;20465;-66
2023/09/25 07:35:59;;;;;;;10.93;2.83;;;;;;;17.60;100.00;99828.22;5066770;28;20059;-66
2023/09/25 07:38:29;;;;;;;12.85;2.65;;;;;;;17.75;100.00;99838.50;5067928;28;20425;-67
2023/09/25 07:40:57;;;;;;;13.75;2.92;;;;;;;17.64;100.00;99857.91;5078030;28;20044;-67
2023/09/25 07:43:29;;;;;;;13.63;3.17;;;;;;;17.78;100.00;99838.25;5057313;28;20060;-67
2023/09/25 07:46:19;;;;;;;11.35;2.70;;;;;;;18.17;100.00;99868.56;5063855;28;20060;-67
2023/09/25 07:48:47;;;;;;;10.52;2.63;;;;;;;18.34;100.00;99863.66;5070183;28;20425;-67
2023/09/25 07:51:14;;;;;;;14.65;3.05;;;;;;;18.09;100.00;99868.34;5066951;28;20053;-67
2023/09/25 07:53:44;;;;;;;20.02;3.60;;;;;;;17.95;100.00;99881.91;5070008;28;20050;-67
2023/09/25 07:56:12;;;;;;;13.65;2.92;;;;;;;17.71;100.00;99895.31;5062285;28;20056;-66
2023/09/25 07:58:39;;;;;;;10.02;2.47;;;;;;;17.46;100.00;99870.81;5061411;28;20044;-66
2023/09/25 08:01:12;;;;;;;12.95;3.10;;;;;;;17.88;100.00;99888.66;5067286;28;20045;-67
2023/09/25 08:03:39;;;;;;;11.80;2.78;;;;;;;18.23;100.00;99863.75;5067287;28;20056;-66
2023/09/25 08:06:07;;;;;;;12.18;2.88;;;;;;;17.81;100.00;99881.22;5066915;28;20169;-65
2023/09/25 08:08:34;;;;;;;15.15;3.47;;;;;;;18.00;100.00;99880.56;5057850;28;20048;-66
2023/09/25 08:11:01;;;;;;;16.02;3.25;;;;;;;18.13;100.00;99876.88;5064701;28;20490;-66
2023/09/25 08:13:29;;;;;;;13.63;2.95;;;;;;;18.34;100.00;99877.78;5061200;28;20169;-66
2023/09/25 08:16:04;;;;;;;12.65;3.03;;;;;;;18.32;100.00;99879.69;5065406;28;20059;-66
2023/09/25 08:18:31;;;;;;;11.57;3.15;;;;;;;18.40;100.00;99885.19;5057369;28;20045;-66
2023/09/25 08:20:59;;;;;;;11.90;2.30;;;;;;;18.69;100.00;99894.31;5069715;28;20471;-66
2023/09/25 08:23:26;;;;;;;13.52;3.05;;;;;;;18.62;100.00;99893.16;5066640;28;20510;-66
2023/09/25 08:25:53;;;;;;;9.45;2.08;;;;;;;18.40;100.00;99884.38;5059221;28;20056;-66
2023/09/25 08:28:20;;;;;;;11.07;2.88;;;;;;;18.41;100.00;99893.97;5065818;28;20502;-66
2023/09/25 08:30:47;;;;;;;10.30;2.70;;;;;;;18.79;100.00;99914.59;5068852;28;20385;-66
2023/09/25 08:33:15;;;;;;;13.05;3.00;;;;;;;18.57;100.00;99915.59;5078901;28;20521;-66
2023/09/25 08:35:43;;;;;;;13.18;3.03;;;;;;;18.51;100.00;99917.91;5073959;28;20501;-66
2023/09/25 08:38:10;;;;;;;15.20;3.20;;;;;;;18.51;100.00;99920.56;5056564;28;20099;-66
2023/09/25 08:40:41;;;;;;;12.43;3.10;;;;;;;18.31;100.00;99922.22;5062428;28;20056;-66
2023/09/25 08:43:10;;;;;;;15.50;3.63;;;;;;;18.62;100.00;99915.19;5064238;28;20045;-66
2023/09/25 08:45:50;;;;;;;15.13;2.50;;;;;;;18.46;100.00;99934.19;5061053;28;20479;-66
2023/09/25 08:48:17;;;;;;;15.18;2.47;;;;;;;18.61;100.00;99929.44;5054614;28;20044;-66
2023/09/25 08:50:45;;;;;;;14.50;2.50;;;;;;;18.71;100.00;99929.50;5049139;28;20106;-66
2023/09/25 08:53:12;;;;;;;11.60;2.70;;;;;;;18.73;100.00;99932.84;5056985;28;20786;-66
2023/09/25 08:55:40;;;;;;;11.18;2.70;;;;;;;18.73;100.00;99933.72;5049687;28;20095;-66
2023/09/25 08:58:08;;;;;;;11.95;2.85;;;;;;;18.63;100.00;99939.88;5064271;28;20434;-66
2023/09/25 09:00:35;;;;;;;13.65;3.17;;;;;;;18.75;100.00;99952.13;5060445;28;21113;-66
2023/09/25 09:03:02;;;;;;;16.55;2.88;;;;;;;18.56;100.00;99956.31;5066005;28;20051;-66
2023/09/25 09:05:29;;;;;;;16.10;3.28;;;;;;;18.65;100.00;99957.38;5063836;28;20054;-66
2023/09/25 09:08:03;;;;;;;16.67;3.50;;;;;;;18.29;100.00;99971.84;5067175;28;20067;-66
2023/09/25 09:10:31;;;;;;;13.77;2.83;;;;;;;18.32;100.00;99959.19;5064473;28;20056;-66
2023/09/25 09:12:58;;;;;;;12.95;3.22;;;;;;;18.39;100.00;99962.19;5066467;28;20140;-66
2023/09/25 09:15:30;;;;;;;19.42;4.15;;;;;;;18.59;100.00;99969.31;5065377;28;20053;-66
2023/09/25 09:17:58;;;;;;;13.13;2.92;;;;;;;18.98;100.00;99976.72;5066969;28;20699;-66
2023/09/25 09:20:36;;;;;;;11.90;2.90;;;;;;;18.89;100.00;99981.03;5062004;28;20481;-66
2023/09/25 09:23:04;;;;;;;16.70;2.75;;;;;;;19.04;100.00;99984.16;5064479;28;20136;-66
2023/09/25 09:25:31;;;;;;;14.20;3.13;;;;;;;19.04;100.00;99996.59;5067249;28;20425;-66
2023/09/25 09:27:59;;;;;;;11.82;2.67;;;;;;;18.82;100.00;100002.88;5060618;28;20048;-66
2023/09/25 09:30:26;;;;;;;14.25;3.28;;;;;;;18.79;100.00;99996.81;5063695;28;20102;-66
2023/09/25 09:32:55;;;;;;;13.43;2.92;;;;;;;19.02;100.00;100003.84;5064704;28;20048;-66
2023/09/25 09:35:25;;;;;;;13.23;3.10;;;;;;;19.04;100.00;99991.28;5065666;28;20433;-66
2023/09/25 09:37:53;;;;;;;11.20;2.60;;;;;;;18.88;100.00;100008.50;5063182;28;20057;-66
2023/09/25 09:40:20;;;;;;;15.43;2.63;;;;;;;18.46;100.00;99996.97;5065125;28;20045;-66
2023/09/25 09:42:51;;;;;;;13.40;3.22;;;;;;;18.34;100.00;99998.81;5062093;28;20048;-66
2023/09/25 09:45:19;;;;;;;9.07;2.28;;;;;;;18.09;100.00;100005.28;5054511;28;20057;-66
2023/09/25 09:47:47;;;;;;;10.00;2.67;;;;;;;17.97;100.00;100020.34;5063238;28;20481;-66
2023/09/25 09:50:21;;;;;;;23.52;2.63;;;;;;;17.80;100.00;100022.50;5061451;28;20071;-66
2023/09/25 09:52:48;;;;;;;12.40;2.85;;;;;;;17.36;100.00;100024.16;5065200;28;20049;-66
2023/09/25 09:55:17;;;;;;;13.07;2.55;;;;;;;17.50;100.00;100028.41;5062354;28;20041;-66
2023/09/25 09:57:44;;;;;;;11.13;2.58;;;;;;;17.26;100.00;100031.13;5060881;28;20055;-66
2023/09/25 10:00:11;;;;;;;9.27;2.20;;;;;;;17.62;100.00;100030.09;5063855;28;20053;-66
2023/09/25 10:02:39;;;;;;;9.90;2.30;;;;;;;17.61;100.00;100017.81;5070795;28;20464;-66
2023/09/25 10:05:10;;;;;;;12.90;2.55;;;;;;;17.57;100.00;100026.94;5070155;28;20063;-66
2023/09/25 10:08:06;;;;;;;9.75;2.13;;;;;;;17.67;100.00;100044.75;5066264;28;20406;-66
2023/09/25 10:10:36;;;;;;;10.02;2.08;;;;;;;17.77;100.00;100041.25;5063453;28;20099;-66
2023/09/25 10:13:07;;;;;;;15.07;3.00;;;;;;;17.31;100.00;100041.38;5068221;28;20045;-66
2023/09/25 10:15:35;;;;;;;15.10;3.20;;;;;;;17.42;100.00;100039.59;5067629;28;20056;-66
2023/09/25 10:18:03;;;;;;;13.85;2.88;;;;;;;17.36;100.00;100053.28;5064711;28;20048;-66
2023/09/25 10:20:40;;;;;;;14.23;3.00;;;;;;;17.14;100.00;100046.16;5069615;28;20056;-66
2023/09/25 10:23:08;;;;;;;16.67;3.83;;;;;;;17.36;100.00;100055.09;5062473;28;20048;-66
2023/09/25 10:25:52;;;;;;;14.52;2.97;;;;;;;17.46;100.00;100048.97;5068183;28;20466;-66
2023/09/25 10:28:30;;;;;;;17.08;2.90;;;;;;;17.63;100.00;100052.09;5065460;28;20466;-66
2023/09/25 10:30:59;;;;;;;14.02;2.70;;;;;;;17.49;100.00;100055.81;5055938;28;20048;-65
2023/09/25 10:33:33;;;;;;;13.40;2.72;;;;;;;17.36;100.00;100032.09;5058954;28;20060;-66
2023/09/25 10:36:03;;;;;;;13.88;2.60;;;;;;;17.60;100.00;100039.09;5060131;28;20044;-66
2023/09/25 10:38:33;;;;;;;15.13;3.25;;;;;;;17.54;100.00;100027.19;5062124;28;20393;-66
2023/09/25 10:41:02;;;;;;;11.48;2.22;;;;;;;17.73;100.00;100034.53;5065640;28;20056;-66
2023/09/25 10:43:30;;;;;;;11.65;2.42;;;;;;;17.80;100.00;100021.66;5062934;28;20459;-66
2023/09/25 10:45:57;;;;;;;13.05;2.63;;;;;;;18.05;100.00;100020.56;5068061;28;20048;-66
2023/09/25 10:48:26;;;;;;;11.88;2.80;;;;;;;18.32;100.00;100024.59;5067980;28;20060;-66
2023/09/25 10:50:54;;;;;;;14.90;2.55;;;;;;;18.56;100.00;100006.69;5067778;28;20040;-66
2023/09/25 10:53:22;;;;;;;15.18;2.50;;;;;;;18.65;100.00;100010.38;5065704;28;20413;-66
2023/09/25 10:55:49;;;;;;;12.73;3.15;;;;;;;18.45;100.00;100003.22;5058927;28;20055;-66
2023/09/25 10:58:17;;;;;;;10.95;2.50;;;;;;;18.78;100.00;100020.81;5059882;28;20784;-66
2023/09/25 11:00:47;;;;;;;15.18;2.38;;;;;;;18.76;100.00;100033.34;5064937;28;20310;-66
2023/09/25 11:03:14;;;;;;;13.50;3.10;;;;;;;18.70;100.00;100041.84;5062860;28;20063;-66
2023/09/25 11:05:42;;;;;;;14.15;2.53;;;;;;;18.71;100.00;100040.84;5059985;28;20040;-66
2023/09/25 11:08:18;;;;;;;12.73;2.95;;;;;;;18.97;100.00;100044.84;5058292;28;20056;-66
2023/09/25 11:10:45;;;;;;;10.32;2.20;;;;;;;18.80;100.00;100042.72;5064874;28;20560;-66
2023/09/25 11:13:12;;;;;;;11.63;2.75;;;;;;;18.72;100.00;100072.53;5076310;28;20041;-66
2023/09/25 11:15:40;;;;;;;12.82;2.50;;;;;;;18.88;100.00;100063.38;5059846;28;20157;-66
2023/09/25 11:18:10;;;;;;;11.73;2.55;;;;;;;18.90;100.00;100053.47;5065961;28;20052;-66
2023/09/25 11:20:38;;;;;;;9.25;2.33;;;;;;;19.22;100.00;100071.16;5068682;28;20163;-66
2023/09/25 11:23:11;;;;;;;13.60;2.70;;;;;;;19.35;100.00;100059.38;5059507;28;20055;-66